createdAt,value
2022-08-17T00:01:53.115Z,23.06
2022-08-17T00:04:39.589Z,23.00
2022-08-17T00:07:24.889Z,23.01
2022-08-17T00:10:10.785Z,23.07
2022-08-17T00:12:56.894Z,23.02
2022-08-17T00:15:42.331Z,23.04
2022-08-17T00:19:01.195Z,22.98
2022-08-17T00:22:30.800Z,22.93
2022-08-17T00:24:59.503Z,22.91
2022-08-17T00:27:50.165Z,22.85
2022-08-17T00:30:51.123Z,22.86
2022-08-17T00:33:40.384Z,22.81
2022-08-17T00:36:26.023Z,22.76
2022-08-17T00:39:11.470Z,22.72
2022-08-17T00:41:57.293Z,22.67
2022-08-17T00:44:43.514Z,22.67
2022-08-17T00:47:28.783Z,22.72
2022-08-17T00:50:16.954Z,22.72
2022-08-17T00:53:02.748Z,22.71
2022-08-17T00:55:48.483Z,22.69
2022-08-17T00:58:38.513Z,22.68
2022-08-17T01:01:24.387Z,22.66
2022-08-17T01:04:12.649Z,22.64
2022-08-17T01:06:59.350Z,22.61
2022-08-17T01:09:45.094Z,22.60
2022-08-17T01:12:31.479Z,22.59
2022-08-17T01:15:17.065Z,22.56
2022-08-17T01:18:05.358Z,22.54
2022-08-17T01:20:53.648Z,22.51
2022-08-17T01:23:42.366Z,22.48
2022-08-17T01:26:29.599Z,22.49
2022-08-17T01:29:14.902Z,22.45
2022-08-17T01:32:03.858Z,22.44
2022-08-17T01:34:50.904Z,22.40
2022-08-17T01:37:40.155Z,22.40
2022-08-17T01:40:33.530Z,22.36
2022-08-17T01:43:24.828Z,22.36
2022-08-17T01:46:15.614Z,22.37
2022-08-17T01:49:01.302Z,22.37
2022-08-17T01:51:46.600Z,22.34
2022-08-17T01:54:32.365Z,22.29
2022-08-17T01:57:18.277Z,22.26
2022-08-17T02:00:06.806Z,22.24
2022-08-17T02:02:59.318Z,22.20
2022-08-17T02:05:45.033Z,22.17
2022-08-17T02:08:38.816Z,22.11
2022-08-17T02:11:38.435Z,22.02
2022-08-17T02:14:24.792Z,21.96
2022-08-17T02:17:10.275Z,22.00
2022-08-17T02:19:55.507Z,22.07
2022-08-17T02:22:44.273Z,22.12
2022-08-17T02:25:32.794Z,22.14
2022-08-17T02:28:18.623Z,22.11
2022-08-17T02:31:07.756Z,22.10
2022-08-17T02:34:00.337Z,22.04
2022-08-17T02:36:50.100Z,22.05
2022-08-17T02:39:35.342Z,22.16
2022-08-17T02:42:36.387Z,22.21
2022-08-17T02:45:24.178Z,22.17
2022-08-17T02:48:10.778Z,22.15
2022-08-17T02:50:55.933Z,22.17
2022-08-17T02:53:41.395Z,22.17
2022-08-17T02:56:26.596Z,22.14
2022-08-17T02:59:11.858Z,22.08
2022-08-17T03:01:57.980Z,22.03
2022-08-17T03:04:43.298Z,21.98
2022-08-17T03:07:29.372Z,21.96
2022-08-17T03:10:15.029Z,21.95
2022-08-17T03:13:00.590Z,21.93
2022-08-17T03:15:46.692Z,21.91
2022-08-17T03:18:32.503Z,21.88
2022-08-17T03:21:20.636Z,21.84
2022-08-17T03:24:08.910Z,21.84
2022-08-17T03:26:54.570Z,21.84
2022-08-17T03:29:40.528Z,21.82
2022-08-17T03:32:25.828Z,21.81
2022-08-17T03:35:13.317Z,21.79
2022-08-17T03:38:02.152Z,21.76
2022-08-17T03:40:56.360Z,21.73
2022-08-17T03:43:44.746Z,21.70
2022-08-17T03:46:48.504Z,21.65
2022-08-17T03:49:52.515Z,21.64
2022-08-17T03:52:56.453Z,21.65
2022-08-17T03:56:00.928Z,21.63
2022-08-17T03:58:47.039Z,21.64
2022-08-17T04:01:32.592Z,21.63
2022-08-17T04:04:19.208Z,21.61
2022-08-17T04:07:13.191Z,21.58
2022-08-17T04:09:59.366Z,21.55
2022-08-17T04:12:49.606Z,21.58
2022-08-17T04:15:34.806Z,21.61
2022-08-17T04:18:23.489Z,21.65
2022-08-17T04:21:10.346Z,21.63
2022-08-17T04:23:55.974Z,21.64
2022-08-17T04:26:52.822Z,21.70
2022-08-17T04:29:54.265Z,21.76
2022-08-17T04:33:04.252Z,21.80
2022-08-17T04:35:54.477Z,21.83
2022-08-17T04:38:45.118Z,21.87
2022-08-17T04:41:48.990Z,21.92
2022-08-17T04:44:37.637Z,21.98
2022-08-17T04:47:23.738Z,22.07
2022-08-17T04:50:09.363Z,22.15
2022-08-17T04:52:55.429Z,22.22
2022-08-17T04:55:41.708Z,22.27
2022-08-17T04:58:27.245Z,22.30
2022-08-17T05:01:13.538Z,22.33
2022-08-17T05:04:02.384Z,22.36
2022-08-17T05:07:07.425Z,22.39
2022-08-17T05:09:53.037Z,22.48
2022-08-17T05:12:38.201Z,22.55
2022-08-17T05:15:23.524Z,22.67
2022-08-17T05:18:09.900Z,22.75
2022-08-17T05:20:56.732Z,22.85
2022-08-17T05:23:43.493Z,22.93
2022-08-17T05:26:29.565Z,22.97
2022-08-17T05:29:15.249Z,23.03
2022-08-17T05:32:38.088Z,23.12
2022-08-17T05:35:15.031Z,23.18
2022-08-17T05:38:00.912Z,23.23
2022-08-17T05:40:47.269Z,23.36
2022-08-17T05:43:39.455Z,23.50
2022-08-17T05:46:26.331Z,23.63
2022-08-17T05:49:14.803Z,23.75
2022-08-17T05:52:37.399Z,23.82
2022-08-17T05:55:32.651Z,23.83
2022-08-17T05:58:46.354Z,23.88
2022-08-17T06:02:03.028Z,23.96
2022-08-17T06:05:05.104Z,24.05
2022-08-17T06:08:15.208Z,24.18
2022-08-17T06:11:06.366Z,24.30
2022-08-17T06:13:57.650Z,24.41
2022-08-17T06:16:50.450Z,24.52
2022-08-17T06:19:46.534Z,24.61
2022-08-17T06:22:40.999Z,24.60
2022-08-17T06:25:42.568Z,24.70
2022-08-17T06:28:37.535Z,24.78
2022-08-17T06:31:27.437Z,24.92
2022-08-17T06:34:13.175Z,24.99
2022-08-17T06:37:25.565Z,25.01
2022-08-17T06:40:28.188Z,24.88
2022-08-17T06:43:26.207Z,24.97
2022-08-17T06:46:30.750Z,25.23
2022-08-17T06:49:19.835Z,25.43
2022-08-17T06:52:55.669Z,25.63
2022-08-17T06:55:56.032Z,25.85
2022-08-17T06:58:44.840Z,26.00
2022-08-17T07:01:35.313Z,26.10
2022-08-17T07:04:26.571Z,26.16
2022-08-17T07:07:31.447Z,26.28
2022-08-17T07:10:19.760Z,26.44
2022-08-17T07:13:29.459Z,26.56
2022-08-17T07:16:21.921Z,26.63
2022-08-17T07:19:11.046Z,26.61
2022-08-17T07:22:14.229Z,26.67
2022-08-17T07:25:04.451Z,26.74
2022-08-17T07:27:55.878Z,26.79
2022-08-17T07:30:49.202Z,26.73
2022-08-17T07:33:36.749Z,26.87
2022-08-17T07:36:30.091Z,27.08
2022-08-17T07:39:27.548Z,27.20
2022-08-17T07:42:13.383Z,27.29
2022-08-17T07:45:19.011Z,27.27
2022-08-17T07:48:19.269Z,27.22
2022-08-17T07:51:20.170Z,27.34
2022-08-17T07:54:19.595Z,27.29
2022-08-17T07:57:14.506Z,27.39
2022-08-17T07:59:59.868Z,27.52
2022-08-17T08:03:02.097Z,27.60
2022-08-17T08:05:57.744Z,27.65
2022-08-17T08:08:50.422Z,27.67
2022-08-17T08:11:40.137Z,27.85
2022-08-17T08:14:34.085Z,28.00
2022-08-17T08:17:24.555Z,27.90
2022-08-17T08:20:37.636Z,27.80
2022-08-17T08:23:41.120Z,28.03
2022-08-17T08:26:46.337Z,28.17
2022-08-17T08:29:44.979Z,27.88
2022-08-17T08:32:59.723Z,28.03
2022-08-17T08:36:13.410Z,28.12
2022-08-17T08:39:35.332Z,28.07
2022-08-17T08:42:38.573Z,27.99
2022-08-17T08:45:56.612Z,27.91
2022-08-17T08:48:58.700Z,28.17
2022-08-17T08:52:03.123Z,28.12
2022-08-17T08:54:56.892Z,28.16
2022-08-17T08:57:55.064Z,28.25
2022-08-17T09:00:46.260Z,28.28
2022-08-17T09:03:52.462Z,28.35
2022-08-17T09:06:41.768Z,28.73
2022-08-17T09:09:42.723Z,28.95
2022-08-17T09:12:58.871Z,28.91
2022-08-17T09:15:48.445Z,28.75
2022-08-17T09:19:00.223Z,28.73
2022-08-17T09:21:52.606Z,28.88
2022-08-17T09:24:54.603Z,29.11
2022-08-17T09:28:00.731Z,29.16
2022-08-17T09:30:52.120Z,29.11
2022-08-17T09:33:44.345Z,28.80
2022-08-17T09:36:35.570Z,28.70
2022-08-17T09:39:33.094Z,28.48
2022-08-17T09:42:35.689Z,28.68
2022-08-17T09:45:20.701Z,28.97
2022-08-17T09:48:21.826Z,29.40
2022-08-17T09:51:21.479Z,29.55
2022-08-17T09:54:38.575Z,29.74
2022-08-17T09:58:01.612Z,29.60
2022-08-17T10:01:00.536Z,29.53
2022-08-17T10:04:02.969Z,29.42
2022-08-17T10:07:01.677Z,29.35
2022-08-17T10:10:02.944Z,29.62
2022-08-17T10:13:09.611Z,29.48
2022-08-17T10:16:10.843Z,29.59
2022-08-17T10:19:05.332Z,29.68
2022-08-17T10:22:32.704Z,29.67
2022-08-17T10:25:54.100Z,29.74
2022-08-17T10:28:52.807Z,29.58
2022-08-17T10:31:45.532Z,29.26
2022-08-17T10:34:52.982Z,29.36
2022-08-17T10:37:46.333Z,29.61
2022-08-17T10:40:43.112Z,29.88
2022-08-17T10:43:57.885Z,29.91
2022-08-17T10:46:56.421Z,29.73
2022-08-17T10:49:47.674Z,29.76
2022-08-17T10:52:33.568Z,29.49
2022-08-17T10:55:20.302Z,29.67
2022-08-17T10:58:21.885Z,29.66
2022-08-17T11:01:08.917Z,29.71
2022-08-17T11:03:57.010Z,30.12
2022-08-17T11:07:02.267Z,30.36
2022-08-17T11:10:06.080Z,30.74
2022-08-17T11:13:29.320Z,30.74
2022-08-17T11:16:53.194Z,30.55
2022-08-17T11:20:06.523Z,30.14
2022-08-17T11:23:23.815Z,30.20
2022-08-17T11:26:25.848Z,30.06
2022-08-17T11:29:29.986Z,30.17
2022-08-17T11:32:34.164Z,30.13
2022-08-17T11:35:22.900Z,30.26
2022-08-17T11:38:28.572Z,30.20
2022-08-17T11:41:26.713Z,30.39
2022-08-17T11:44:21.284Z,30.68
2022-08-17T11:47:56.981Z,30.58
2022-08-17T11:51:23.867Z,30.78
2022-08-17T11:57:29.385Z,31.26
2022-08-17T12:01:00.737Z,31.21
2022-08-17T12:03:55.605Z,30.83
2022-08-17T12:06:50.594Z,30.88
2022-08-17T12:09:41.572Z,31.19
2022-08-17T12:12:33.015Z,30.96
2022-08-17T12:15:25.446Z,30.99
2022-08-17T12:18:33.626Z,30.91
2022-08-17T12:21:37.607Z,30.66
2022-08-17T12:24:35.343Z,30.46
2022-08-17T12:27:50.748Z,30.69
2022-08-17T12:30:38.800Z,30.87
2022-08-17T12:33:28.488Z,31.00
2022-08-17T12:36:18.124Z,31.15
2022-08-17T12:39:14.611Z,30.95
2022-08-17T12:42:02.840Z,30.89
2022-08-17T12:44:57.121Z,30.79
2022-08-17T12:47:43.402Z,30.76
2022-08-17T12:50:31.828Z,31.08
2022-08-17T12:53:23.341Z,30.92
2022-08-17T12:56:13.207Z,31.24
2022-08-17T12:58:58.353Z,31.06
2022-08-17T13:01:43.668Z,31.12
2022-08-17T13:04:29.749Z,31.30
2022-08-17T13:07:29.927Z,31.35
2022-08-17T13:10:21.675Z,31.13
2022-08-17T13:13:26.606Z,31.15
2022-08-17T13:16:20.999Z,31.04
2022-08-17T13:19:39.954Z,31.02
2022-08-17T13:22:57.086Z,31.01
2022-08-17T13:25:45.904Z,31.12
2022-08-17T13:28:35.976Z,31.00
2022-08-17T13:31:30.094Z,31.20
2022-08-17T13:34:18.994Z,31.32
2022-08-17T13:37:35.195Z,31.60
2022-08-17T13:40:20.580Z,31.61
2022-08-17T13:43:06.735Z,31.60
2022-08-17T13:45:53.209Z,31.83
2022-08-17T13:48:39.223Z,32.00
2022-08-17T13:51:28.767Z,31.78
2022-08-17T13:54:30.988Z,31.68
2022-08-17T13:57:22.736Z,31.32
2022-08-17T14:00:17.474Z,31.43
2022-08-17T14:03:09.393Z,31.46
2022-08-17T14:05:54.739Z,31.42
2022-08-17T14:08:40.064Z,31.36
2022-08-17T14:11:26.027Z,31.30
2022-08-17T14:14:13.158Z,31.35
2022-08-17T14:16:58.666Z,31.43
2022-08-17T14:19:43.856Z,31.43
2022-08-17T14:22:33.907Z,31.32
2022-08-17T14:25:39.144Z,31.02
2022-08-17T14:28:56.462Z,31.09
2022-08-17T14:31:54.888Z,31.29
2022-08-17T14:35:12.217Z,31.38
2022-08-17T14:38:25.054Z,31.58
2022-08-17T14:41:30.835Z,31.59
2022-08-17T14:44:22.234Z,31.41
2022-08-17T14:47:17.039Z,31.06
2022-08-17T14:50:04.646Z,31.12
2022-08-17T14:52:58.042Z,30.97
2022-08-17T14:55:50.104Z,30.93
2022-08-17T14:58:36.338Z,30.81
2022-08-17T15:01:25.023Z,30.76
2022-08-17T15:04:14.939Z,30.59
2022-08-17T15:07:00.288Z,30.78
2022-08-17T15:09:45.779Z,30.82
2022-08-17T15:12:33.734Z,30.87
2022-08-17T15:15:20.330Z,30.70
2022-08-17T15:18:05.601Z,30.72
2022-08-17T15:20:51.457Z,30.55
2022-08-17T15:23:39.287Z,30.65
2022-08-17T15:26:26.394Z,30.65
2022-08-17T15:29:11.922Z,30.67
2022-08-17T15:32:00.591Z,30.67
2022-08-17T15:34:46.289Z,30.65
2022-08-17T15:37:35.340Z,30.65
2022-08-17T15:40:20.836Z,30.59
2022-08-17T15:43:27.079Z,30.55
2022-08-17T15:46:17.516Z,30.57
2022-08-17T15:49:02.695Z,30.58
2022-08-17T15:51:47.935Z,30.48
2022-08-17T15:54:34.574Z,30.31
2022-08-17T15:57:23.943Z,30.23
2022-08-17T16:00:10.500Z,30.28
2022-08-17T16:03:20.200Z,30.14
2022-08-17T16:06:12.555Z,30.09
2022-08-17T16:08:59.501Z,30.28
2022-08-17T16:11:45.941Z,30.46
2022-08-17T16:14:39.730Z,30.57
2022-08-17T16:17:39.258Z,30.66
2022-08-17T16:20:26.464Z,30.51
2022-08-17T16:23:17.179Z,30.45
2022-08-17T16:26:07.695Z,30.60
2022-08-17T16:28:54.314Z,30.75
2022-08-17T16:31:41.907Z,30.84
2022-08-17T16:34:27.195Z,30.66
2022-08-17T16:37:13.599Z,30.39
2022-08-17T16:40:00.354Z,29.94
2022-08-17T16:42:48.643Z,29.80
2022-08-17T16:45:41.111Z,29.78
2022-08-17T16:48:28.876Z,29.82
2022-08-17T16:51:14.207Z,29.89
2022-08-17T16:53:59.632Z,29.86
2022-08-17T16:56:45.890Z,29.81
2022-08-17T16:59:42.432Z,29.91
2022-08-17T17:02:32.051Z,29.95
2022-08-17T17:05:45.702Z,29.80
2022-08-17T17:08:49.378Z,29.70
2022-08-17T17:11:47.050Z,29.62
2022-08-17T17:14:37.980Z,29.63
2022-08-17T17:17:36.127Z,29.51
2022-08-17T17:20:31.721Z,29.55
2022-08-17T17:23:57.367Z,29.74
2022-08-17T17:27:01.736Z,29.59
2022-08-17T17:30:10.456Z,29.36
2022-08-17T17:33:06.787Z,29.08
2022-08-17T17:35:57.445Z,28.90
2022-08-17T17:38:52.842Z,28.74
2022-08-17T17:41:51.960Z,28.81
2022-08-17T17:44:53.980Z,28.85
2022-08-17T17:47:39.453Z,28.87
2022-08-17T17:50:34.656Z,28.73
2022-08-17T17:53:45.387Z,28.60
2022-08-17T17:56:59.770Z,28.48
2022-08-17T18:00:21.607Z,28.38
2022-08-17T18:03:30.568Z,28.31
2022-08-17T18:06:37.133Z,28.24
2022-08-17T18:09:42.199Z,28.17
2022-08-17T18:13:05.451Z,28.13
2022-08-17T18:15:53.207Z,28.09
2022-08-17T18:18:42.894Z,28.04
2022-08-17T18:21:52.959Z,28.00
2022-08-17T18:24:42.274Z,27.96
2022-08-17T18:27:35.247Z,27.92
2022-08-17T18:30:20.677Z,27.91
2022-08-17T18:33:23.305Z,27.85
2022-08-17T18:36:10.182Z,27.79
2022-08-17T18:39:17.039Z,27.75
2022-08-17T18:42:03.738Z,27.75
2022-08-17T18:44:53.001Z,27.72
2022-08-17T18:47:55.387Z,27.69
2022-08-17T18:50:41.340Z,27.66
2022-08-17T18:53:39.658Z,27.64
2022-08-17T18:56:33.224Z,27.62
2022-08-17T18:59:18.636Z,27.65
2022-08-17T19:02:28.238Z,27.63
2022-08-17T19:05:38.528Z,27.60
2022-08-17T19:08:30.033Z,27.59
2022-08-17T19:11:34.449Z,27.53
2022-08-17T19:14:21.196Z,27.50
2022-08-17T19:17:16.308Z,27.44
2022-08-17T19:20:12.453Z,27.40
2022-08-17T19:23:24.786Z,27.41
2022-08-17T19:26:53.742Z,27.44
2022-08-17T19:29:41.081Z,27.46
2022-08-17T19:32:30.230Z,27.45
2022-08-17T19:35:26.960Z,27.55
2022-08-17T19:38:29.240Z,27.60
2022-08-17T19:41:24.288Z,27.56
2022-08-17T19:44:33.873Z,27.50
2022-08-17T19:47:54.297Z,27.48
2022-08-17T19:51:15.537Z,27.43
2022-08-17T19:54:09.737Z,27.42
2022-08-17T19:57:11.974Z,27.39
2022-08-17T20:00:04.336Z,27.39
2022-08-17T20:02:55.839Z,27.33
2022-08-17T20:06:11.502Z,27.28
2022-08-17T20:09:19.633Z,27.23
2022-08-17T20:12:10.643Z,27.19
2022-08-17T20:15:02.972Z,27.14
2022-08-17T20:17:49.175Z,27.11
2022-08-17T20:20:55.767Z,27.08
2022-08-17T20:23:59.900Z,27.07
2022-08-17T20:26:57.998Z,27.08
2022-08-17T20:30:10.235Z,27.06
2022-08-17T20:32:58.103Z,27.04
2022-08-17T20:36:01.918Z,27.03
2022-08-17T20:38:57.955Z,27.04
2022-08-17T20:42:08.057Z,27.10
2022-08-17T20:45:02.389Z,27.04
2022-08-17T20:48:15.989Z,26.97
2022-08-17T20:51:00.837Z,26.83
2022-08-17T20:53:49.326Z,26.73
2022-08-17T20:56:43.727Z,26.70
2022-08-17T20:59:49.067Z,26.66
2022-08-17T21:02:37.058Z,26.64
2022-08-17T21:05:34.572Z,26.56
2022-08-17T21:08:33.784Z,26.48
2022-08-17T21:12:00.056Z,26.41
2022-08-17T21:14:40.948Z,26.35
2022-08-17T21:17:46.454Z,26.29
2022-08-17T21:20:40.084Z,26.28
2022-08-17T21:24:03.123Z,26.24
2022-08-17T21:27:08.297Z,26.21
2022-08-17T21:30:06.550Z,26.22
2022-08-17T21:33:10.742Z,26.17
2022-08-17T21:35:59.051Z,26.15
2022-08-17T21:38:47.353Z,26.07
2022-08-17T21:41:43.898Z,26.09
2022-08-17T21:44:36.572Z,26.09
2022-08-17T21:47:26.455Z,26.11
2022-08-17T21:50:22.988Z,26.15
2022-08-17T21:53:15.797Z,26.20
2022-08-17T21:56:01.555Z,26.20
2022-08-17T21:58:54.404Z,26.18
2022-08-17T22:01:42.894Z,26.17
2022-08-17T22:04:33.435Z,26.14
2022-08-17T22:07:38.510Z,26.11
2022-08-17T22:10:37.538Z,26.15
2022-08-17T22:13:29.556Z,26.18
2022-08-17T22:16:28.519Z,26.14
2022-08-17T22:19:15.415Z,26.12
2022-08-17T22:22:11.078Z,26.14
2022-08-17T22:25:00.939Z,26.07
2022-08-17T22:27:52.016Z,26.04
2022-08-17T22:30:59.789Z,26.01
2022-08-17T22:34:00.218Z,25.97
2022-08-17T22:36:45.894Z,25.94
2022-08-17T22:39:40.358Z,25.92
2022-08-17T22:42:26.169Z,25.90
2022-08-17T22:45:11.691Z,25.87
2022-08-17T22:48:02.536Z,25.84
2022-08-17T22:50:51.491Z,25.83
2022-08-17T22:53:55.869Z,25.81
2022-08-17T22:57:30.963Z,25.80
2022-08-17T23:00:31.858Z,25.79
2022-08-17T23:03:24.311Z,25.72
2022-08-17T23:06:11.460Z,25.68
2022-08-17T23:08:57.645Z,25.74
2022-08-17T23:11:49.685Z,25.72
2022-08-17T23:14:42.414Z,25.72
2022-08-17T23:17:33.897Z,25.71
2022-08-17T23:20:21.828Z,25.65
2022-08-17T23:23:08.844Z,25.60
2022-08-17T23:25:54.691Z,25.57
2022-08-17T23:28:43.697Z,25.58
2022-08-17T23:31:35.306Z,25.56
2022-08-17T23:34:20.967Z,25.52
2022-08-17T23:37:07.280Z,25.49
2022-08-17T23:39:52.885Z,25.47
2022-08-17T23:42:43.375Z,25.47
2022-08-17T23:45:32.111Z,25.42
2022-08-17T23:48:32.516Z,25.40
2022-08-17T23:51:25.153Z,25.35
2022-08-17T23:54:24.169Z,25.33
2022-08-17T23:57:12.661Z,25.34
2022-08-17T23:59:58.319Z,25.36
